sensor_id;sensor_type;location;lat;lon;timestamp;P1;durP1;ratioP1;P2;durP2;ratioP2
65665;SDS011;52365;47.464;18.976;2024-01-10T00:00:17;9.60;;;4.90;;
65665;SDS011;52365;47.464;18.976;2024-01-10T00:00:38;9.00;;;4.70;;
65665;SDS011;52365;47.464;18.976;2024-01-10T00:00:59;12.13;;;4.78;;
65665;SDS011;52365;47.464;18.976;2024-01-10T00:01:21;9.88;;;4.60;;
65665;SDS011;52365;47.464;18.976;2024-01-10T00:01:47;8.85;;;4.62;;
65665;SDS011;52365;47.464;18.976;2024-01-10T00:02:03;9.05;;;4.65;;
65665;SDS011;52365;47.464;18.976;2024-01-10T00:02:24;8.32;;;4.40;;
65665;SDS011;52365;47.464;18.976;2024-01-10T00:02:45;9.60;;;4.80;;
65665;SDS011;52365;47.464;18.976;2024-01-10T00:03:05;10.23;;;4.97;;
65665;SDS011;52365;47.464;18.976;2024-01-10T00:03:26;9.85;;;5.22;;
65665;SDS011;52365;47.464;18.976;2024-01-10T00:03:47;10.23;;;4.75;;
65665;SDS011;52365;47.464;18.976;2024-01-10T00:04:08;10.15;;;5.32;;
65665;SDS011;52365;47.464;18.976;2024-01-10T00:04:29;10.80;;;5.22;;
65665;SDS011;52365;47.464;18.976;2024-01-10T00:04:50;10.13;;;5.03;;
65665;SDS011;52365;47.464;18.976;2024-01-10T00:05:11;9.20;;;4.75;;
65665;SDS011;52365;47.464;18.976;2024-01-10T00:05:32;9.27;;;4.82;;
65665;SDS011;52365;47.464;18.976;2024-01-10T00:05:53;8.85;;;4.70;;
65665;SDS011;52365;47.464;18.976;2024-01-10T00:06:15;9.65;;;4.90;;
65665;SDS011;52365;47.464;18.976;2024-01-10T00:06:36;14.57;;;7.70;;
65665;SDS011;52365;47.464;18.976;2024-01-10T00:06:57;14.50;;;8.70;;
65665;SDS011;52365;47.464;18.976;2024-01-10T00:07:18;11.25;;;5.90;;
65665;SDS011;52365;47.464;18.976;2024-01-10T00:07:39;12.45;;;6.32;;
65665;SDS011;52365;47.464;18.976;2024-01-10T00:08:00;11.75;;;6.03;;
65665;SDS011;52365;47.464;18.976;2024-01-10T00:08:21;9.85;;;5.00;;
65665;SDS011;52365;47.464;18.976;2024-01-10T00:08:41;9.32;;;4.72;;
65665;SDS011;52365;47.464;18.976;2024-01-10T00:09:02;10.73;;;5.28;;
65665;SDS011;52365;47.464;18.976;2024-01-10T00:09:23;11.10;;;5.00;;
65665;SDS011;52365;47.464;18.976;2024-01-10T00:09:44;8.77;;;5.05;;
65665;SDS011;52365;47.464;18.976;2024-01-10T00:10:06;10.35;;;5.28;;
65665;SDS011;52365;47.464;18.976;2024-01-10T00:10:27;9.77;;;5.07;;
65665;SDS011;52365;47.464;18.976;2024-01-10T00:10:49;8.73;;;4.50;;
65665;SDS011;52365;47.464;18.976;2024-01-10T00:11:10;9.82;;;4.93;;
65665;SDS011;52365;47.464;18.976;2024-01-10T00:11:30;9.95;;;5.00;;
65665;SDS011;52365;47.464;18.976;2024-01-10T00:11:51;8.57;;;4.50;;
65665;SDS011;52365;47.464;18.976;2024-01-10T00:12:12;9.57;;;4.40;;
65665;SDS011;52365;47.464;18.976;2024-01-10T00:12:33;9.93;;;4.78;;
65665;SDS011;52365;47.464;18.976;2024-01-10T00:12:57;10.57;;;5.20;;
65665;SDS011;52365;47.464;18.976;2024-01-10T00:13:18;12.07;;;5.65;;
65665;SDS011;52365;47.464;18.976;2024-01-10T00:13:39;10.05;;;5.03;;
65665;SDS011;52365;47.464;18.976;2024-01-10T00:14:00;10.25;;;4.90;;
65665;SDS011;52365;47.464;18.976;2024-01-10T00:14:20;12.27;;;5.43;;
65665;SDS011;52365;47.464;18.976;2024-01-10T00:14:41;10.13;;;5.35;;
65665;SDS011;52365;47.464;18.976;2024-01-10T00:15:03;10.32;;;5.18;;
65665;SDS011;52365;47.464;18.976;2024-01-10T00:15:25;8.98;;;4.70;;
65665;SDS011;52365;47.464;18.976;2024-01-10T00:15:46;9.90;;;5.28;;
65665;SDS011;52365;47.464;18.976;2024-01-10T00:16:06;10.10;;;5.07;;
65665;SDS011;52365;47.464;18.976;2024-01-10T00:16:28;9.13;;;4.97;;
65665;SDS011;52365;47.464;18.976;2024-01-10T00:16:44;9.00;;;4.87;;
65665;SDS011;52365;47.464;18.976;2024-01-10T00:17:05;8.52;;;4.43;;
65665;SDS011;52365;47.464;18.976;2024-01-10T00:17:26;9.65;;;4.80;;
65665;SDS011;52365;47.464;18.976;2024-01-10T00:17:46;10.45;;;5.22;;
65665;SDS011;52365;47.464;18.976;2024-01-10T00:18:07;10.77;;;4.95;;
65665;SDS011;52365;47.464;18.976;2024-01-10T00:18:28;9.35;;;4.95;;
65665;SDS011;52365;47.464;18.976;2024-01-10T00:18:49;8.70;;;4.68;;
65665;SDS011;52365;47.464;18.976;2024-01-10T00:19:10;9.93;;;4.53;;
65665;SDS011;52365;47.464;18.976;2024-01-10T00:19:31;8.80;;;4.30;;
65665;SDS011;52365;47.464;18.976;2024-01-10T00:19:52;9.95;;;4.78;;
65665;SDS011;52365;47.464;18.976;2024-01-10T00:20:13;8.30;;;4.28;;
65665;SDS011;52365;47.464;18.976;2024-01-10T00:20:34;8.07;;;4.35;;
65665;SDS011;52365;47.464;18.976;2024-01-10T00:20:55;8.82;;;4.37;;
65665;SDS011;52365;47.464;18.976;2024-01-10T00:21:16;8.57;;;4.50;;
65665;SDS011;52365;47.464;18.976;2024-01-10T00:21:37;9.35;;;4.30;;
65665;SDS011;52365;47.464;18.976;2024-01-10T00:21:58;9.00;;;4.47;;
65665;SDS011;52365;47.464;18.976;2024-01-10T00:22:19;8.30;;;4.50;;
65665;SDS011;52365;47.464;18.976;2024-01-10T00:22:40;8.95;;;4.30;;
65665;SDS011;52365;47.464;18.976;2024-01-10T00:23:01;8.05;;;4.12;;
65665;SDS011;52365;47.464;18.976;2024-01-10T00:23:21;7.97;;;4.30;;
65665;SDS011;52365;47.464;18.976;2024-01-10T00:23:42;8.65;;;4.53;;
65665;SDS011;52365;47.464;18.976;2024-01-10T00:24:04;7.73;;;4.23;;
65665;SDS011;52365;47.464;18.976;2024-01-10T00:24:25;9.02;;;4.28;;
65665;SDS011;52365;47.464;18.976;2024-01-10T00:24:46;7.90;;;4.28;;
65665;SDS011;52365;47.464;18.976;2024-01-10T00:25:07;8.43;;;4.00;;
65665;SDS011;52365;47.464;18.976;2024-01-10T00:25:28;8.52;;;4.15;;
65665;SDS011;52365;47.464;18.976;2024-01-10T00:25:49;8.10;;;4.18;;
65665;SDS011;52365;47.464;18.976;2024-01-10T00:26:10;7.87;;;4.30;;
65665;SDS011;52365;47.464;18.976;2024-01-10T00:26:31;7.32;;;3.92;;
65665;SDS011;52365;47.464;18.976;2024-01-10T00:26:52;8.23;;;4.12;;
65665;SDS011;52365;47.464;18.976;2024-01-10T00:27:13;7.68;;;4.12;;
65665;SDS011;52365;47.464;18.976;2024-01-10T00:27:34;7.40;;;3.92;;
65665;SDS011;52365;47.464;18.976;2024-01-10T00:27:55;7.22;;;4.15;;
65665;SDS011;52365;47.464;18.976;2024-01-10T00:28:16;7.70;;;4.18;;
65665;SDS011;52365;47.464;18.976;2024-01-10T00:28:40;7.45;;;4.20;;
65665;SDS011;52365;47.464;18.976;2024-01-10T00:29:00;8.23;;;4.30;;
65665;SDS011;52365;47.464;18.976;2024-01-10T00:29:21;8.15;;;4.15;;
65665;SDS011;52365;47.464;18.976;2024-01-10T00:29:42;8.50;;;4.20;;
65665;SDS011;52365;47.464;18.976;2024-01-10T00:30:03;9.50;;;4.53;;
65665;SDS011;52365;47.464;18.976;2024-01-10T00:30:26;8.68;;;4.40;;
65665;SDS011;52365;47.464;18.976;2024-01-10T00:30:47;7.78;;;4.20;;
65665;SDS011;52365;47.464;18.976;2024-01-10T00:31:05;9.30;;;4.20;;
65665;SDS011;52365;47.464;18.976;2024-01-10T00:31:26;9.85;;;4.35;;
65665;SDS011;52365;47.464;18.976;2024-01-10T00:31:47;9.48;;;4.57;;
65665;SDS011;52365;47.464;18.976;2024-01-10T00:32:08;7.57;;;4.03;;
65665;SDS011;52365;47.464;18.976;2024-01-10T00:32:29;7.50;;;4.22;;
65665;SDS011;52365;47.464;18.976;2024-01-10T00:32:50;8.10;;;4.45;;
65665;SDS011;52365;47.464;18.976;2024-01-10T00:33:11;8.38;;;4.28;;
65665;SDS011;52365;47.464;18.976;2024-01-10T00:33:32;9.02;;;4.32;;
65665;SDS011;52365;47.464;18.976;2024-01-10T00:33:53;8.32;;;4.22;;
65665;SDS011;52365;47.464;18.976;2024-01-10T00:34:14;7.95;;;4.22;;
65665;SDS011;52365;47.464;18.976;2024-01-10T00:34:35;8.15;;;4.20;;
65665;SDS011;52365;47.464;18.976;2024-01-10T00:34:55;8.77;;;4.00;;
65665;SDS011;52365;47.464;18.976;2024-01-10T00:35:16;8.75;;;4.18;;
65665;SDS011;52365;47.464;18.976;2024-01-10T00:35:37;9.35;;;4.80;;
65665;SDS011;52365;47.464;18.976;2024-01-10T00:35:58;8.65;;;4.60;;
65665;SDS011;52365;47.464;18.976;2024-01-10T00:36:19;10.02;;;4.37;;
65665;SDS011;52365;47.464;18.976;2024-01-10T00:36:40;8.20;;;4.05;;
65665;SDS011;52365;47.464;18.976;2024-01-10T00:37:01;6.55;;;3.75;;
65665;SDS011;52365;47.464;18.976;2024-01-10T00:37:22;8.82;;;4.12;;
65665;SDS011;52365;47.464;18.976;2024-01-10T00:37:43;9.05;;;4.30;;
65665;SDS011;52365;47.464;18.976;2024-01-10T00:38:04;8.57;;;4.30;;
65665;SDS011;52365;47.464;18.976;2024-01-10T00:38:25;8.65;;;4.10;;
65665;SDS011;52365;47.464;18.976;2024-01-10T00:38:46;7.65;;;4.18;;
65665;SDS011;52365;47.464;18.976;2024-01-10T00:39:07;8.45;;;4.30;;
65665;SDS011;52365;47.464;18.976;2024-01-10T00:39:28;9.05;;;4.50;;
65665;SDS011;52365;47.464;18.976;2024-01-10T00:39:49;9.05;;;4.20;;
65665;SDS011;52365;47.464;18.976;2024-01-10T00:40:10;9.02;;;4.37;;
65665;SDS011;52365;47.464;18.976;2024-01-10T00:40:31;7.78;;;4.10;;
65665;SDS011;52365;47.464;18.976;2024-01-10T00:40:52;7.25;;;4.25;;
65665;SDS011;52365;47.464;18.976;2024-01-10T00:41:13;8.27;;;4.60;;
65665;SDS011;52365;47.464;18.976;2024-01-10T00:41:34;7.62;;;4.28;;
65665;SDS011;52365;47.464;18.976;2024-01-10T00:41:55;8.52;;;4.25;;
65665;SDS011;52365;47.464;18.976;2024-01-10T00:42:16;8.55;;;4.03;;
65665;SDS011;52365;47.464;18.976;2024-01-10T00:42:37;8.30;;;4.28;;
65665;SDS011;52365;47.464;18.976;2024-01-10T00:42:58;8.75;;;4.32;;
65665;SDS011;52365;47.464;18.976;2024-01-10T00:43:18;9.10;;;4.60;;
65665;SDS011;52365;47.464;18.976;2024-01-10T00:43:39;8.85;;;4.10;;
65665;SDS011;52365;47.464;18.976;2024-01-10T00:44:00;8.85;;;4.15;;
65665;SDS011;52365;47.464;18.976;2024-01-10T00:44:21;7.85;;;4.22;;
65665;SDS011;52365;47.464;18.976;2024-01-10T00:44:42;7.97;;;4.22;;
65665;SDS011;52365;47.464;18.976;2024-01-10T00:45:03;7.65;;;4.15;;
65665;SDS011;52365;47.464;18.976;2024-01-10T00:45:25;8.25;;;4.03;;
65665;SDS011;52365;47.464;18.976;2024-01-10T00:45:46;9.43;;;4.45;;
65665;SDS011;52365;47.464;18.976;2024-01-10T00:46:07;8.98;;;4.25;;
65665;SDS011;52365;47.464;18.976;2024-01-10T00:46:28;9.05;;;4.40;;
65665;SDS011;52365;47.464;18.976;2024-01-10T00:46:49;8.40;;;4.40;;
65665;SDS011;52365;47.464;18.976;2024-01-10T00:47:10;9.50;;;4.50;;
65665;SDS011;52365;47.464;18.976;2024-01-10T00:47:31;8.57;;;4.65;;
65665;SDS011;52365;47.464;18.976;2024-01-10T00:47:52;8.15;;;4.40;;
65665;SDS011;52365;47.464;18.976;2024-01-10T00:48:13;8.45;;;4.22;;
65665;SDS011;52365;47.464;18.976;2024-01-10T00:48:34;9.05;;;4.45;;
65665;SDS011;52365;47.464;18.976;2024-01-10T00:48:55;8.55;;;4.40;;
65665;SDS011;52365;47.464;18.976;2024-01-10T00:49:16;8.18;;;4.40;;
65665;SDS011;52365;47.464;18.976;2024-01-10T00:49:37;8.35;;;4.30;;
65665;SDS011;52365;47.464;18.976;2024-01-10T00:49:58;8.82;;;4.53;;
65665;SDS011;52365;47.464;18.976;2024-01-10T00:50:19;7.62;;;4.40;;
65665;SDS011;52365;47.464;18.976;2024-01-10T00:50:40;8.45;;;4.62;;
65665;SDS011;52365;47.464;18.976;2024-01-10T00:51:01;8.73;;;4.35;;
65665;SDS011;52365;47.464;18.976;2024-01-10T00:51:28;7.97;;;4.25;;
65665;SDS011;52365;47.464;18.976;2024-01-10T00:51:49;8.10;;;4.28;;
65665;SDS011;52365;47.464;18.976;2024-01-10T00:52:10;8.00;;;4.50;;
65665;SDS011;52365;47.464;18.976;2024-01-10T00:52:31;9.38;;;4.80;;
65665;SDS011;52365;47.464;18.976;2024-01-10T00:52:52;10.90;;;5.00;;
65665;SDS011;52365;47.464;18.976;2024-01-10T00:53:13;8.63;;;4.68;;
65665;SDS011;52365;47.464;18.976;2024-01-10T00:53:34;7.78;;;4.32;;
65665;SDS011;52365;47.464;18.976;2024-01-10T00:53:55;9.10;;;4.35;;
65665;SDS011;52365;47.464;18.976;2024-01-10T00:54:16;9.70;;;4.62;;
65665;SDS011;52365;47.464;18.976;2024-01-10T00:54:37;9.32;;;4.68;;
65665;SDS011;52365;47.464;18.976;2024-01-10T00:54:58;10.30;;;4.75;;
65665;SDS011;52365;47.464;18.976;2024-01-10T00:55:19;7.50;;;4.10;;
65665;SDS011;52365;47.464;18.976;2024-01-10T00:55:40;8.70;;;4.28;;
65665;SDS011;52365;47.464;18.976;2024-01-10T00:56:01;8.93;;;4.30;;
65665;SDS011;52365;47.464;18.976;2024-01-10T00:56:22;8.82;;;4.72;;
65665;SDS011;52365;47.464;18.976;2024-01-10T00:56:43;9.27;;;4.82;;
65665;SDS011;52365;47.464;18.976;2024-01-10T00:57:04;11.38;;;5.18;;
65665;SDS011;52365;47.464;18.976;2024-01-10T00:57:25;9.93;;;4.85;;
65665;SDS011;52365;47.464;18.976;2024-01-10T00:57:46;9.60;;;4.85;;
65665;SDS011;52365;47.464;18.976;2024-01-10T00:58:07;9.35;;;4.82;;
65665;SDS011;52365;47.464;18.976;2024-01-10T00:58:28;10.82;;;5.18;;
65665;SDS011;52365;47.464;18.976;2024-01-10T00:58:49;8.85;;;4.90;;
65665;SDS011;52365;47.464;18.976;2024-01-10T00:59:10;9.05;;;4.72;;
65665;SDS011;52365;47.464;18.976;2024-01-10T00:59:30;11.10;;;5.03;;
65665;SDS011;52365;47.464;18.976;2024-01-10T00:59:51;9.95;;;5.00;;
65665;SDS011;52365;47.464;18.976;2024-01-10T01:00:12;9.35;;;4.65;;
65665;SDS011;52365;47.464;18.976;2024-01-10T01:00:34;8.35;;;4.40;;
65665;SDS011;52365;47.464;18.976;2024-01-10T01:00:55;7.93;;;4.75;;
65665;SDS011;52365;47.464;18.976;2024-01-10T01:01:16;9.63;;;4.97;;
65665;SDS011;52365;47.464;18.976;2024-01-10T01:01:36;9.70;;;4.95;;
65665;SDS011;52365;47.464;18.976;2024-01-10T01:01:57;9.68;;;5.20;;
65665;SDS011;52365;47.464;18.976;2024-01-10T01:02:18;10.60;;;5.30;;
65665;SDS011;52365;47.464;18.976;2024-01-10T01:02:39;9.52;;;4.95;;
65665;SDS011;52365;47.464;18.976;2024-01-10T01:03:00;10.85;;;5.35;;
65665;SDS011;52365;47.464;18.976;2024-01-10T01:03:21;10.32;;;5.30;;
65665;SDS011;52365;47.464;18.976;2024-01-10T01:03:42;11.15;;;5.10;;
65665;SDS011;52365;47.464;18.976;2024-01-10T01:04:03;9.95;;;4.97;;
65665;SDS011;52365;47.464;18.976;2024-01-10T01:04:24;9.90;;;5.00;;
65665;SDS011;52365;47.464;18.976;2024-01-10T01:04:45;9.27;;;4.85;;
65665;SDS011;52365;47.464;18.976;2024-01-10T01:05:06;9.50;;;4.90;;
65665;SDS011;52365;47.464;18.976;2024-01-10T01:05:30;10.90;;;5.20;;
65665;SDS011;52365;47.464;18.976;2024-01-10T01:05:51;9.60;;;5.07;;
65665;SDS011;52365;47.464;18.976;2024-01-10T01:06:07;9.15;;;4.90;;
65665;SDS011;52365;47.464;18.976;2024-01-10T01:06:28;10.23;;;5.15;;
65665;SDS011;52365;47.464;18.976;2024-01-10T01:06:49;10.00;;;4.82;;
65665;SDS011;52365;47.464;18.976;2024-01-10T01:07:09;10.27;;;4.65;;
65665;SDS011;52365;47.464;18.976;2024-01-10T01:07:30;10.10;;;5.10;;
65665;SDS011;52365;47.464;18.976;2024-01-10T01:07:46;10.30;;;5.32;;
65665;SDS011;52365;47.464;18.976;2024-01-10T01:08:07;9.73;;;4.75;;
65665;SDS011;52365;47.464;18.976;2024-01-10T01:08:28;9.80;;;5.03;;
65665;SDS011;52365;47.464;18.976;2024-01-10T01:08:49;9.57;;;4.62;;
65665;SDS011;52365;47.464;18.976;2024-01-10T01:09:10;9.70;;;4.87;;
65665;SDS011;52365;47.464;18.976;2024-01-10T01:09:27;10.40;;;5.00;;
65665;SDS011;52365;47.464;18.976;2024-01-10T01:09:48;11.88;;;5.15;;
65665;SDS011;52365;47.464;18.976;2024-01-10T01:10:09;12.07;;;5.20;;
65665;SDS011;52365;47.464;18.976;2024-01-10T01:10:30;9.82;;;4.80;;
65665;SDS011;52365;47.464;18.976;2024-01-10T01:10:51;11.50;;;5.15;;
65665;SDS011;52365;47.464;18.976;2024-01-10T01:11:12;10.25;;;5.18;;
65665;SDS011;52365;47.464;18.976;2024-01-10T01:11:35;11.15;;;5.18;;
65665;SDS011;52365;47.464;18.976;2024-01-10T01:11:56;9.30;;;4.60;;
65665;SDS011;52365;47.464;18.976;2024-01-10T01:12:17;9.77;;;4.90;;
65665;SDS011;52365;47.464;18.976;2024-01-10T01:12:38;9.32;;;4.97;;
65665;SDS011;52365;47.464;18.976;2024-01-10T01:12:59;9.45;;;5.10;;
65665;SDS011;52365;47.464;18.976;2024-01-10T01:13:20;11.73;;;5.12;;
65665;SDS011;52365;47.464;18.976;2024-01-10T01:13:42;12.57;;;5.50;;
65665;SDS011;52365;47.464;18.976;2024-01-10T01:14:02;9.63;;;5.03;;
65665;SDS011;52365;47.464;18.976;2024-01-10T01:14:23;9.60;;;5.03;;
65665;SDS011;52365;47.464;18.976;2024-01-10T01:14:44;9.98;;;5.20;;
65665;SDS011;52365;47.464;18.976;2024-01-10T01:15:05;10.68;;;5.10;;
65665;SDS011;52365;47.464;18.976;2024-01-10T01:15:27;9.65;;;4.87;;
65665;SDS011;52365;47.464;18.976;2024-01-10T01:15:48;11.20;;;5.25;;
65665;SDS011;52365;47.464;18.976;2024-01-10T01:16:10;10.63;;;5.32;;
65665;SDS011;52365;47.464;18.976;2024-01-10T01:16:31;10.30;;;5.03;;
65665;SDS011;52365;47.464;18.976;2024-01-10T01:16:51;10.57;;;5.00;;
65665;SDS011;52365;47.464;18.976;2024-01-10T01:17:13;10.15;;;5.22;;
65665;SDS011;52365;47.464;18.976;2024-01-10T01:17:33;12.05;;;5.53;;
65665;SDS011;52365;47.464;18.976;2024-01-10T01:17:55;12.07;;;5.43;;
65665;SDS011;52365;47.464;18.976;2024-01-10T01:18:16;10.88;;;5.57;;
65665;SDS011;52365;47.464;18.976;2024-01-10T01:18:37;9.15;;;5.05;;
65665;SDS011;52365;47.464;18.976;2024-01-10T01:18:58;11.15;;;5.55;;
65665;SDS011;52365;47.464;18.976;2024-01-10T01:19:19;10.85;;;5.32;;
65665;SDS011;52365;47.464;18.976;2024-01-10T01:19:39;9.30;;;5.07;;
65665;SDS011;52365;47.464;18.976;2024-01-10T01:20:00;9.30;;;4.80;;
65665;SDS011;52365;47.464;18.976;2024-01-10T01:20:23;10.63;;;5.10;;
65665;SDS011;52365;47.464;18.976;2024-01-10T01:20:44;10.98;;;5.15;;
65665;SDS011;52365;47.464;18.976;2024-01-10T01:21:05;11.23;;;5.00;;
65665;SDS011;52365;47.464;18.976;2024-01-10T01:21:21;10.63;;;5.20;;
65665;SDS011;52365;47.464;18.976;2024-01-10T01:21:42;11.95;;;5.80;;
65665;SDS011;52365;47.464;18.976;2024-01-10T01:22:03;10.65;;;5.57;;
65665;SDS011;52365;47.464;18.976;2024-01-10T01:22:24;10.50;;;5.45;;
65665;SDS011;52365;47.464;18.976;2024-01-10T01:22:45;11.05;;;5.50;;
65665;SDS011;52365;47.464;18.976;2024-01-10T01:23:06;10.07;;;4.90;;
65665;SDS011;52365;47.464;18.976;2024-01-10T01:23:27;10.20;;;4.90;;
65665;SDS011;52365;47.464;18.976;2024-01-10T01:23:48;10.13;;;5.40;;
65665;SDS011;52365;47.464;18.976;2024-01-10T01:24:09;11.27;;;5.78;;
65665;SDS011;52365;47.464;18.976;2024-01-10T01:24:31;10.73;;;5.43;;
65665;SDS011;52365;47.464;18.976;2024-01-10T01:24:52;10.05;;;5.40;;
65665;SDS011;52365;47.464;18.976;2024-01-10T01:25:13;10.70;;;5.57;;
65665;SDS011;52365;47.464;18.976;2024-01-10T01:25:34;10.43;;;5.57;;
65665;SDS011;52365;47.464;18.976;2024-01-10T01:25:55;10.90;;;5.57;;
65665;SDS011;52365;47.464;18.976;2024-01-10T01:26:16;11.38;;;5.78;;
65665;SDS011;52365;47.464;18.976;2024-01-10T01:26:37;11.45;;;5.43;;
65665;SDS011;52365;47.464;18.976;2024-01-10T01:26:58;11.65;;;6.00;;
65665;SDS011;52365;47.464;18.976;2024-01-10T01:27:19;10.90;;;5.72;;
65665;SDS011;52365;47.464;18.976;2024-01-10T01:27:40;10.70;;;5.53;;
65665;SDS011;52365;47.464;18.976;2024-01-10T01:28:01;10.63;;;5.68;;
65665;SDS011;52365;47.464;18.976;2024-01-10T01:28:22;11.68;;;5.70;;
65665;SDS011;52365;47.464;18.976;2024-01-10T01:28:38;11.55;;;5.50;;
65665;SDS011;52365;47.464;18.976;2024-01-10T01:28:59;11.93;;;5.95;;
65665;SDS011;52365;47.464;18.976;2024-01-10T01:29:20;15.00;;;7.28;;
65665;SDS011;52365;47.464;18.976;2024-01-10T01:29:41;15.77;;;7.43;;
65665;SDS011;52365;47.464;18.976;2024-01-10T01:30:02;14.48;;;7.20;;
65665;SDS011;52365;47.464;18.976;2024-01-10T01:30:24;15.38;;;7.35;;
65665;SDS011;52365;47.464;18.976;2024-01-10T01:30:45;17.00;;;7.32;;
65665;SDS011;52365;47.464;18.976;2024-01-10T01:31:06;14.13;;;6.78;;
65665;SDS011;52365;47.464;18.976;2024-01-10T01:31:27;13.07;;;6.62;;
65665;SDS011;52365;47.464;18.976;2024-01-10T01:31:48;14.52;;;7.05;;
65665;SDS011;52365;47.464;18.976;2024-01-10T01:32:09;12.52;;;6.43;;
65665;SDS011;52365;47.464;18.976;2024-01-10T01:32:25;11.70;;;6.62;;
65665;SDS011;52365;47.464;18.976;2024-01-10T01:32:45;12.37;;;6.68;;
65665;SDS011;52365;47.464;18.976;2024-01-10T01:33:06;13.20;;;7.07;;
65665;SDS011;52365;47.464;18.976;2024-01-10T01:33:27;13.10;;;6.90;;
65665;SDS011;52365;47.464;18.976;2024-01-10T01:33:48;13.68;;;7.22;;
65665;SDS011;52365;47.464;18.976;2024-01-10T01:34:09;15.85;;;7.70;;
65665;SDS011;52365;47.464;18.976;2024-01-10T01:34:30;18.65;;;8.38;;
65665;SDS011;52365;47.464;18.976;2024-01-10T01:34:51;17.20;;;8.30;;
65665;SDS011;52365;47.464;18.976;2024-01-10T01:35:12;17.00;;;8.30;;
65665;SDS011;52365;47.464;18.976;2024-01-10T01:35:33;14.32;;;7.65;;
65665;SDS011;52365;47.464;18.976;2024-01-10T01:35:54;13.38;;;7.72;;
65665;SDS011;52365;47.464;18.976;2024-01-10T01:36:15;15.35;;;7.82;;
65665;SDS011;52365;47.464;18.976;2024-01-10T01:36:36;15.80;;;8.13;;
65665;SDS011;52365;47.464;18.976;2024-01-10T01:36:57;14.35;;;7.75;;
65665;SDS011;52365;47.464;18.976;2024-01-10T01:37:17;15.05;;;7.93;;
65665;SDS011;52365;47.464;18.976;2024-01-10T01:37:39;16.52;;;8.13;;
65665;SDS011;52365;47.464;18.976;2024-01-10T01:38:00;16.02;;;8.00;;
65665;SDS011;52365;47.464;18.976;2024-01-10T01:38:21;14.63;;;7.75;;
65665;SDS011;52365;47.464;18.976;2024-01-10T01:38:42;15.80;;;7.85;;
65665;SDS011;52365;47.464;18.976;2024-01-10T01:39:02;17.73;;;8.07;;
65665;SDS011;52365;47.464;18.976;2024-01-10T01:39:24;15.93;;;7.68;;
65665;SDS011;52365;47.464;18.976;2024-01-10T01:39:39;16.17;;;7.87;;
65665;SDS011;52365;47.464;18.976;2024-01-10T01:40:00;18.27;;;8.43;;
65665;SDS011;52365;47.464;18.976;2024-01-10T01:40:21;16.75;;;8.60;;
65665;SDS011;52365;47.464;18.976;2024-01-10T01:40:42;15.48;;;8.65;;
65665;SDS011;52365;47.464;18.976;2024-01-10T01:41:03;16.83;;;8.73;;
65665;SDS011;52365;47.464;18.976;2024-01-10T01:41:26;16.45;;;8.60;;
65665;SDS011;52365;47.464;18.976;2024-01-10T01:41:47;17.00;;;8.55;;
65665;SDS011;52365;47.464;18.976;2024-01-10T01:42:08;16.65;;;8.27;;
65665;SDS011;52365;47.464;18.976;2024-01-10T01:42:29;18.15;;;8.63;;
65665;SDS011;52365;47.464;18.976;2024-01-10T01:42:50;18.48;;;8.82;;
65665;SDS011;52365;47.464;18.976;2024-01-10T01:43:20;17.58;;;8.25;;
65665;SDS011;52365;47.464;18.976;2024-01-10T01:43:45;18.33;;;8.38;;
65665;SDS011;52365;47.464;18.976;2024-01-10T01:44:06;17.42;;;8.27;;
65665;SDS011;52365;47.464;18.976;2024-01-10T01:44:27;17.87;;;8.70;;
65665;SDS011;52365;47.464;18.976;2024-01-10T01:44:48;19.23;;;8.95;;
65665;SDS011;52365;47.464;18.976;2024-01-10T01:45:09;18.33;;;8.95;;
65665;SDS011;52365;47.464;18.976;2024-01-10T01:45:30;16.92;;;8.63;;
65665;SDS011;52365;47.464;18.976;2024-01-10T01:45:52;17.15;;;9.07;;
65665;SDS011;52365;47.464;18.976;2024-01-10T01:46:14;16.92;;;8.68;;
65665;SDS011;52365;47.464;18.976;2024-01-10T01:46:35;19.10;;;9.35;;
65665;SDS011;52365;47.464;18.976;2024-01-10T01:46:57;19.60;;;9.15;;
65665;SDS011;52365;47.464;18.976;2024-01-10T01:47:19;17.48;;;8.95;;
65665;SDS011;52365;47.464;18.976;2024-01-10T01:47:40;17.80;;;8.48;;
65665;SDS011;52365;47.464;18.976;2024-01-10T01:48:01;17.45;;;8.38;;
65665;SDS011;52365;47.464;18.976;2024-01-10T01:48:22;17.17;;;8.52;;
65665;SDS011;52365;47.464;18.976;2024-01-10T01:48:45;16.77;;;8.65;;
65665;SDS011;52365;47.464;18.976;2024-01-10T01:49:02;16.83;;;8.68;;
65665;SDS011;52365;47.464;18.976;2024-01-10T01:49:24;17.35;;;8.98;;
65665;SDS011;52365;47.464;18.976;2024-01-10T01:49:46;18.10;;;8.57;;
65665;SDS011;52365;47.464;18.976;2024-01-10T01:50:08;17.42;;;8.85;;
65665;SDS011;52365;47.464;18.976;2024-01-10T01:50:29;19.08;;;8.73;;
65665;SDS011;52365;47.464;18.976;2024-01-10T01:50:51;18.58;;;8.82;;
65665;SDS011;52365;47.464;18.976;2024-01-10T01:51:17;19.77;;;8.57;;
65665;SDS011;52365;47.464;18.976;2024-01-10T01:51:41;18.90;;;8.82;;
65665;SDS011;52365;47.464;18.976;2024-01-10T01:52:02;17.87;;;9.10;;
65665;SDS011;52365;47.464;18.976;2024-01-10T01:52:24;19.27;;;9.32;;
65665;SDS011;52365;47.464;18.976;2024-01-10T01:52:45;16.95;;;8.82;;
65665;SDS011;52365;47.464;18.976;2024-01-10T01:53:06;15.65;;;8.27;;
65665;SDS011;52365;47.464;18.976;2024-01-10T01:53:27;18.10;;;8.95;;
65665;SDS011;52365;47.464;18.976;2024-01-10T01:53:49;18.55;;;8.82;;
65665;SDS011;52365;47.464;18.976;2024-01-10T01:54:10;18.45;;;9.00;;
65665;SDS011;52365;47.464;18.976;2024-01-10T01:54:31;21.00;;;9.18;;
65665;SDS011;52365;47.464;18.976;2024-01-10T01:54:53;22.02;;;8.88;;
65665;SDS011;52365;47.464;18.976;2024-01-10T01:55:14;17.75;;;8.80;;
65665;SDS011;52365;47.464;18.976;2024-01-10T01:55:35;20.23;;;9.27;;
65665;SDS011;52365;47.464;18.976;2024-01-10T01:55:57;20.35;;;9.40;;
65665;SDS011;52365;47.464;18.976;2024-01-10T01:56:20;18.83;;;9.75;;
65665;SDS011;52365;47.464;18.976;2024-01-10T01:56:37;18.77;;;9.30;;
65665;SDS011;52365;47.464;18.976;2024-01-10T01:57:00;19.62;;;9.02;;
65665;SDS011;52365;47.464;18.976;2024-01-10T01:57:21;18.85;;;9.15;;
65665;SDS011;52365;47.464;18.976;2024-01-10T01:57:42;19.67;;;9.43;;
65665;SDS011;52365;47.464;18.976;2024-01-10T01:58:03;21.92;;;9.70;;
65665;SDS011;52365;47.464;18.976;2024-01-10T01:58:24;20.05;;;9.38;;
65665;SDS011;52365;47.464;18.976;2024-01-10T01:58:45;19.40;;;9.13;;
65665;SDS011;52365;47.464;18.976;2024-01-10T01:59:08;19.70;;;9.63;;
65665;SDS011;52365;47.464;18.976;2024-01-10T01:59:29;20.02;;;9.68;;
65665;SDS011;52365;47.464;18.976;2024-01-10T01:59:50;18.50;;;9.48;;
65665;SDS011;52365;47.464;18.976;2024-01-10T02:00:11;19.33;;;9.50;;
65665;SDS011;52365;47.464;18.976;2024-01-10T02:00:32;20.05;;;9.10;;
65665;SDS011;52365;47.464;18.976;2024-01-10T02:00:53;21.12;;;9.60;;
65665;SDS011;52365;47.464;18.976;2024-01-10T02:01:14;18.77;;;9.27;;
65665;SDS011;52365;47.464;18.976;2024-01-10T02:01:35;19.08;;;9.52;;
65665;SDS011;52365;47.464;18.976;2024-01-10T02:01:56;18.73;;;9.35;;
65665;SDS011;52365;47.464;18.976;2024-01-10T02:02:22;19.35;;;9.18;;
65665;SDS011;52365;47.464;18.976;2024-01-10T02:02:45;20.23;;;9.52;;
65665;SDS011;52365;47.464;18.976;2024-01-10T02:03:09;20.60;;;9.40;;
65665;SDS011;52365;47.464;18.976;2024-01-10T02:03:31;17.55;;;9.35;;
65665;SDS011;52365;47.464;18.976;2024-01-10T02:03:53;18.27;;;9.55;;
65665;SDS011;52365;47.464;18.976;2024-01-10T02:04:15;17.23;;;9.27;;